sensor_id;sensor_type;location;lat;lon;timestamp;pressure;altitude;pressure_sealevel;temperature;humidity
63535;BME280;55128;50.230;18.944;2022-09-09T00:10:18;98148.53;;;18.40;82.36
63535;BME280;55128;50.230;18.944;2022-09-09T00:26:04;98153.88;;;17.98;82.05
63535;BME280;55128;50.230;18.944;2022-09-09T00:31:15;98149.63;;;17.84;81.90
63535;BME280;55128;50.230;18.944;2022-09-09T00:36:21;98158.84;;;17.70;81.31
63535;BME280;55128;50.230;18.944;2022-09-09T00:57:36;98168.81;;;17.24;81.89
63535;BME280;55128;50.230;18.944;2022-09-09T01:07:47;98172.84;;;17.07;81.59
63535;BME280;55128;50.230;18.944;2022-09-09T01:12:48;98187.72;;;17.00;81.86
63535;BME280;55128;50.230;18.944;2022-09-09T01:17:53;98189.56;;;16.88;82.65
63535;BME280;55128;50.230;18.944;2022-09-09T01:28:23;98197.59;;;17.00;82.63
63535;BME280;55128;50.230;18.944;2022-09-09T01:33:26;98199.06;;;16.93;81.80
63535;BME280;55128;50.230;18.944;2022-09-09T01:38:27;98195.41;;;16.82;81.66
63535;BME280;55128;50.230;18.944;2022-09-09T01:43:29;98199.13;;;16.68;82.37
63535;BME280;55128;50.230;18.944;2022-09-09T01:48:31;98204.25;;;16.71;82.28
63535;BME280;55128;50.230;18.944;2022-09-09T01:53:31;98202.41;;;16.72;82.50
63535;BME280;55128;50.230;18.944;2022-09-09T02:03:53;98207.78;;;16.72;83.16
63535;BME280;55128;50.230;18.944;2022-09-09T02:08:57;98202.41;;;16.72;83.33
63535;BME280;55128;50.230;18.944;2022-09-09T02:14:06;98212.53;;;16.80;82.75
63535;BME280;55128;50.230;18.944;2022-09-09T02:19:27;98214.47;;;16.78;82.64
63535;BME280;55128;50.230;18.944;2022-09-09T02:24:36;98218.88;;;16.67;81.87
63535;BME280;55128;50.230;18.944;2022-09-09T02:29:42;98232.97;;;16.58;81.95
63535;BME280;55128;50.230;18.944;2022-09-09T02:34:47;98237.38;;;16.59;81.79
63535;BME280;55128;50.230;18.944;2022-09-09T02:39:48;98235.16;;;16.53;81.90
63535;BME280;55128;50.230;18.944;2022-09-09T02:44:49;98230.78;;;16.52;82.02
63535;BME280;55128;50.230;18.944;2022-09-09T02:50:05;98230.00;;;16.39;81.92
63535;BME280;55128;50.230;18.944;2022-09-09T02:56:03;98238.00;;;16.27;82.02
63535;BME280;55128;50.230;18.944;2022-09-09T03:00:38;98240.50;;;16.18;81.56
63535;BME280;55128;50.230;18.944;2022-09-09T03:05:39;98249.47;;;16.05;81.98
63535;BME280;55128;50.230;18.944;2022-09-09T03:10:40;98251.47;;;15.90;82.88
63535;BME280;55128;50.230;18.944;2022-09-09T03:15:41;98254.50;;;15.73;83.50
63535;BME280;55128;50.230;18.944;2022-09-09T03:20:42;98256.22;;;15.61;83.69
63535;BME280;55128;50.230;18.944;2022-09-09T03:25:47;98253.06;;;15.56;82.88
63535;BME280;55128;50.230;18.944;2022-09-09T03:30:48;98264.41;;;15.47;83.14
63535;BME280;55128;50.230;18.944;2022-09-09T03:35:49;98267.84;;;15.36;83.09
63535;BME280;55128;50.230;18.944;2022-09-09T03:40:51;98275.59;;;15.28;82.69
63535;BME280;55128;50.230;18.944;2022-09-09T03:45:53;98267.88;;;15.23;82.34
63535;BME280;55128;50.230;18.944;2022-09-09T03:50:57;98277.19;;;15.18;82.65
63535;BME280;55128;50.230;18.944;2022-09-09T03:56:01;98272.06;;;15.02;83.12
63535;BME280;55128;50.230;18.944;2022-09-09T04:01:08;98274.31;;;14.95;82.84
63535;BME280;55128;50.230;18.944;2022-09-09T04:06:10;98276.22;;;14.80;82.77
63535;BME280;55128;50.230;18.944;2022-09-09T04:11:13;98280.06;;;14.76;82.48
63535;BME280;55128;50.230;18.944;2022-09-09T04:16:15;98275.56;;;14.76;82.32
63535;BME280;55128;50.230;18.944;2022-09-09T04:21:16;98285.22;;;14.79;81.91
63535;BME280;55128;50.230;18.944;2022-09-09T04:26:18;98287.25;;;14.75;82.17
63535;BME280;55128;50.230;18.944;2022-09-09T04:31:22;98282.41;;;14.81;82.36
63535;BME280;55128;50.230;18.944;2022-09-09T04:36:23;98284.53;;;14.88;82.57
63535;BME280;55128;50.230;18.944;2022-09-09T04:41:24;98281.78;;;14.90;83.05
63535;BME280;55128;50.230;18.944;2022-09-09T04:46:24;98286.69;;;15.09;82.32
63535;BME280;55128;50.230;18.944;2022-09-09T04:51:25;98290.25;;;15.22;82.41
63535;BME280;55128;50.230;18.944;2022-09-09T04:56:26;98294.97;;;15.68;82.75
63535;BME280;55128;50.230;18.944;2022-09-09T05:01:29;98305.97;;;16.97;78.73
63535;BME280;55128;50.230;18.944;2022-09-09T05:06:30;98305.34;;;18.18;76.41
63535;BME280;55128;50.230;18.944;2022-09-09T05:11:32;98305.38;;;19.65;71.17
63535;BME280;55128;50.230;18.944;2022-09-09T05:16:36;98325.16;;;21.23;69.75
63535;BME280;55128;50.230;18.944;2022-09-09T05:21:36;98324.13;;;22.37;66.28
63535;BME280;55128;50.230;18.944;2022-09-09T05:26:37;98324.13;;;23.08;62.72
63535;BME280;55128;50.230;18.944;2022-09-09T05:31:38;98326.69;;;23.89;57.99
63535;BME280;55128;50.230;18.944;2022-09-09T05:36:39;98336.28;;;25.17;54.06
63535;BME280;55128;50.230;18.944;2022-09-09T05:41:39;98340.59;;;25.84;52.29
63535;BME280;55128;50.230;18.944;2022-09-09T05:46:40;98337.56;;;27.04;48.99
63535;BME280;55128;50.230;18.944;2022-09-09T05:51:41;98342.03;;;27.43;51.15
63535;BME280;55128;50.230;18.944;2022-09-09T05:56:43;98333.34;;;27.92;48.20
63535;BME280;55128;50.230;18.944;2022-09-09T06:01:43;98349.88;;;28.94;46.56
63535;BME280;55128;50.230;18.944;2022-09-09T06:06:45;98348.63;;;29.39;41.87
63535;BME280;55128;50.230;18.944;2022-09-09T06:11:46;98352.31;;;30.65;40.17
63535;BME280;55128;50.230;18.944;2022-09-09T06:16:46;98347.03;;;30.63;40.20
63535;BME280;55128;50.230;18.944;2022-09-09T06:21:47;98346.09;;;31.11;38.44
63535;BME280;55128;50.230;18.944;2022-09-09T06:26:48;98351.13;;;32.07;36.58
63535;BME280;55128;50.230;18.944;2022-09-09T06:31:48;98363.69;;;33.50;34.14
63535;BME280;55128;50.230;18.944;2022-09-09T06:36:49;98366.31;;;34.07;33.13
63535;BME280;55128;50.230;18.944;2022-09-09T06:41:49;98366.03;;;33.47;33.81
63535;BME280;55128;50.230;18.944;2022-09-09T06:46:53;98361.53;;;34.70;32.58
63535;BME280;55128;50.230;18.944;2022-09-09T06:51:53;98366.97;;;36.72;28.14
63535;BME280;55128;50.230;18.944;2022-09-09T06:56:54;98361.22;;;35.86;28.73
63535;BME280;55128;50.230;18.944;2022-09-09T07:01:55;98355.59;;;36.57;29.09
63535;BME280;55128;50.230;18.944;2022-09-09T07:06:57;98351.88;;;35.87;28.40
63535;BME280;55128;50.230;18.944;2022-09-09T07:11:58;98351.66;;;34.93;29.87
63535;BME280;55128;50.230;18.944;2022-09-09T07:16:59;98357.09;;;32.95;33.61
63535;BME280;55128;50.230;18.944;2022-09-09T07:22:00;98350.75;;;33.51;32.90
63535;BME280;55128;50.230;18.944;2022-09-09T07:27:02;98334.53;;;35.33;30.28
63535;BME280;55128;50.230;18.944;2022-09-09T07:32:03;98337.03;;;36.98;27.54
63535;BME280;55128;50.230;18.944;2022-09-09T07:37:04;98350.06;;;37.65;27.71
63535;BME280;55128;50.230;18.944;2022-09-09T07:42:05;98350.06;;;37.48;26.00
63535;BME280;55128;50.230;18.944;2022-09-09T07:47:06;98355.69;;;37.53;25.66
63535;BME280;55128;50.230;18.944;2022-09-09T07:52:06;98370.38;;;38.93;24.70
63535;BME280;55128;50.230;18.944;2022-09-09T07:57:07;98372.22;;;37.48;26.09
63535;BME280;55128;50.230;18.944;2022-09-09T08:02:09;98376.38;;;38.85;24.15
63535;BME280;55128;50.230;18.944;2022-09-09T08:07:09;98384.84;;;38.95;23.76
63535;BME280;55128;50.230;18.944;2022-09-09T08:12:10;98363.44;;;37.68;24.48
63535;BME280;55128;50.230;18.944;2022-09-09T08:17:13;98371.19;;;37.04;25.88
63535;BME280;55128;50.230;18.944;2022-09-09T08:22:13;98371.91;;;36.06;26.62
63535;BME280;55128;50.230;18.944;2022-09-09T08:27:14;98371.38;;;34.29;28.44
63535;BME280;55128;50.230;18.944;2022-09-09T08:32:14;98362.28;;;36.20;26.02
63535;BME280;55128;50.230;18.944;2022-09-09T08:37:16;98369.59;;;35.14;27.61
63535;BME280;55128;50.230;18.944;2022-09-09T08:42:35;98368.41;;;36.34;26.74
63535;BME280;55128;50.230;18.944;2022-09-09T08:52:42;98371.41;;;33.60;30.20
63535;BME280;55128;50.230;18.944;2022-09-09T08:57:53;98379.13;;;34.39;29.36
63535;BME280;55128;50.230;18.944;2022-09-09T09:13:40;98367.88;;;34.22;29.87
63535;BME280;55128;50.230;18.944;2022-09-09T09:18:43;98368.00;;;33.40;30.76
63535;BME280;55128;50.230;18.944;2022-09-09T09:23:57;98363.03;;;35.15;27.34
63535;BME280;55128;50.230;18.944;2022-09-09T09:28:59;98365.56;;;36.70;25.00
63535;BME280;55128;50.230;18.944;2022-09-09T09:34:01;98362.94;;;34.42;27.44
63535;BME280;55128;50.230;18.944;2022-09-09T09:39:03;98344.81;;;32.45;29.87
63535;BME280;55128;50.230;18.944;2022-09-09T09:44:18;98357.91;;;33.52;29.41
63535;BME280;55128;50.230;18.944;2022-09-09T09:49:21;98345.47;;;32.92;31.27
63535;BME280;55128;50.230;18.944;2022-09-09T09:54:28;98355.41;;;31.56;32.71
63535;BME280;55128;50.230;18.944;2022-09-09T09:59:36;98355.38;;;31.36;33.44
63535;BME280;55128;50.230;18.944;2022-09-09T10:04:39;98352.75;;;30.61;33.67
63535;BME280;55128;50.230;18.944;2022-09-09T10:09:40;98349.28;;;30.46;33.77
63535;BME280;55128;50.230;18.944;2022-09-09T10:31:05;98367.44;;;29.49;36.00
63535;BME280;55128;50.230;18.944;2022-09-09T10:36:12;98389.22;;;29.36;35.76
63535;BME280;55128;50.230;18.944;2022-09-09T10:56:35;98369.84;;;28.94;36.56
63535;BME280;55128;50.230;18.944;2022-09-09T11:02:45;98374.19;;;28.01;37.75
63535;BME280;55128;50.230;18.944;2022-09-09T11:07:41;98367.00;;;27.32;39.58
63535;BME280;55128;50.230;18.944;2022-09-09T11:12:48;98368.28;;;27.74;35.09
63535;BME280;55128;50.230;18.944;2022-09-09T11:17:55;98366.66;;;28.18;36.95
63535;BME280;55128;50.230;18.944;2022-09-09T11:23:04;98383.66;;;27.75;36.35
63535;BME280;55128;50.230;18.944;2022-09-09T11:38:46;98364.72;;;27.73;37.02
63535;BME280;55128;50.230;18.944;2022-09-09T11:43:49;98378.16;;;27.60;37.71
63535;BME280;55128;50.230;18.944;2022-09-09T11:49:02;98373.06;;;27.57;37.76
63535;BME280;55128;50.230;18.944;2022-09-09T11:54:32;98368.22;;;27.06;38.67
63535;BME280;55128;50.230;18.944;2022-09-09T11:59:50;98370.06;;;26.28;39.42
63535;BME280;55128;50.230;18.944;2022-09-09T12:05:07;98370.25;;;26.58;38.15
63535;BME280;55128;50.230;18.944;2022-09-09T12:15:28;98366.34;;;26.84;37.25
63535;BME280;55128;50.230;18.944;2022-09-09T12:20:39;98372.28;;;27.33;36.44
63535;BME280;55128;50.230;18.944;2022-09-09T12:36:19;98372.16;;;27.04;37.27
63535;BME280;55128;50.230;18.944;2022-09-09T12:41:26;98385.53;;;27.37;38.37
63535;BME280;55128;50.230;18.944;2022-09-09T12:46:36;98382.81;;;27.13;37.75
63535;BME280;55128;50.230;18.944;2022-09-09T12:51:43;98367.88;;;26.86;37.59
63535;BME280;55128;50.230;18.944;2022-09-09T12:56:46;98367.19;;;26.53;37.78
63535;BME280;55128;50.230;18.944;2022-09-09T13:01:55;98369.31;;;26.74;37.21
63535;BME280;55128;50.230;18.944;2022-09-09T13:07:08;98362.19;;;26.73;35.89
63535;BME280;55128;50.230;18.944;2022-09-09T13:12:18;98366.06;;;27.02;36.46
63535;BME280;55128;50.230;18.944;2022-09-09T13:17:25;98349.09;;;26.68;36.10
63535;BME280;55128;50.230;18.944;2022-09-09T13:22:34;98348.38;;;26.43;37.53
63535;BME280;55128;50.230;18.944;2022-09-09T13:27:38;98344.66;;;26.36;37.50
63535;BME280;55128;50.230;18.944;2022-09-09T13:32:39;98334.44;;;26.69;38.10
63535;BME280;55128;50.230;18.944;2022-09-09T13:37:39;98331.09;;;26.82;38.36
63535;BME280;55128;50.230;18.944;2022-09-09T13:42:44;98328.22;;;26.52;38.17
63535;BME280;55128;50.230;18.944;2022-09-09T13:47:45;98324.31;;;26.78;37.96
63535;BME280;55128;50.230;18.944;2022-09-09T13:52:54;98313.88;;;26.90;37.65
63535;BME280;55128;50.230;18.944;2022-09-09T13:57:59;98320.81;;;26.92;38.28
63535;BME280;55128;50.230;18.944;2022-09-09T14:03:00;98312.91;;;26.51;38.63
63535;BME280;55128;50.230;18.944;2022-09-09T14:08:05;98306.44;;;26.52;39.11
63535;BME280;55128;50.230;18.944;2022-09-09T14:13:06;98296.50;;;26.36;38.56
63535;BME280;55128;50.230;18.944;2022-09-09T14:18:11;98301.34;;;26.26;38.18
63535;BME280;55128;50.230;18.944;2022-09-09T14:23:11;98302.22;;;25.79;38.91
63535;BME280;55128;50.230;18.944;2022-09-09T14:28:13;98295.16;;;25.53;39.47
63535;BME280;55128;50.230;18.944;2022-09-09T14:33:15;98298.53;;;25.55;41.33
63535;BME280;55128;50.230;18.944;2022-09-09T14:38:17;98297.09;;;25.76;41.35
63535;BME280;55128;50.230;18.944;2022-09-09T14:43:18;98293.00;;;25.80;42.76
63535;BME280;55128;50.230;18.944;2022-09-09T14:48:19;98292.75;;;25.50;43.29
63535;BME280;55128;50.230;18.944;2022-09-09T14:53:19;98289.44;;;25.15;43.62
63535;BME280;55128;50.230;18.944;2022-09-09T14:58:20;98292.63;;;25.11;43.95
63535;BME280;55128;50.230;18.944;2022-09-09T15:03:21;98292.44;;;25.20;42.97
63535;BME280;55128;50.230;18.944;2022-09-09T15:08:23;98285.22;;;24.96;44.72
63535;BME280;55128;50.230;18.944;2022-09-09T15:13:24;98291.63;;;24.95;45.22
63535;BME280;55128;50.230;18.944;2022-09-09T15:18:25;98294.16;;;24.64;46.81
63535;BME280;55128;50.230;18.944;2022-09-09T15:23:26;98306.59;;;24.67;46.52
63535;BME280;55128;50.230;18.944;2022-09-09T15:28:27;98297.19;;;24.36;50.52
63535;BME280;55128;50.230;18.944;2022-09-09T15:33:28;98291.72;;;24.20;49.68
63535;BME280;55128;50.230;18.944;2022-09-09T15:38:31;98290.22;;;23.83;47.60
63535;BME280;55128;50.230;18.944;2022-09-09T15:43:31;98285.47;;;23.51;49.38
63535;BME280;55128;50.230;18.944;2022-09-09T15:48:32;98302.38;;;23.18;52.06
63535;BME280;55128;50.230;18.944;2022-09-09T15:53:32;98292.34;;;22.93;54.46
63535;BME280;55128;50.230;18.944;2022-09-09T15:58:35;98302.28;;;22.66;56.18
63535;BME280;55128;50.230;18.944;2022-09-09T16:03:37;98293.00;;;22.50;56.13
63535;BME280;55128;50.230;18.944;2022-09-09T16:08:40;98285.50;;;22.17;57.27
63535;BME280;55128;50.230;18.944;2022-09-09T16:13:43;98280.66;;;21.74;60.40
63535;BME280;55128;50.230;18.944;2022-09-09T16:18:46;98272.53;;;21.74;59.51
63535;BME280;55128;50.230;18.944;2022-09-09T16:23:49;98270.22;;;21.52;60.42
63535;BME280;55128;50.230;18.944;2022-09-09T16:28:50;98266.72;;;21.32;63.81
63535;BME280;55128;50.230;18.944;2022-09-09T16:33:51;98267.75;;;21.11;63.40
63535;BME280;55128;50.230;18.944;2022-09-09T16:38:53;98264.56;;;20.88;64.93
63535;BME280;55128;50.230;18.944;2022-09-09T16:44:06;98266.44;;;20.78;65.05
63535;BME280;55128;50.230;18.944;2022-09-09T16:49:09;98268.41;;;20.66;65.40
63535;BME280;55128;50.230;18.944;2022-09-09T16:54:10;98267.69;;;20.45;66.21
63535;BME280;55128;50.230;18.944;2022-09-09T16:59:14;98264.84;;;20.07;69.04
63535;BME280;55128;50.230;18.944;2022-09-09T17:04:18;98265.06;;;19.85;68.80
63535;BME280;55128;50.230;18.944;2022-09-09T17:09:25;98276.41;;;19.78;68.95
63535;BME280;55128;50.230;18.944;2022-09-09T17:14:29;98271.41;;;19.74;69.88
63535;BME280;55128;50.230;18.944;2022-09-09T17:19:31;98276.63;;;19.35;71.51
63535;BME280;55128;50.230;18.944;2022-09-09T17:24:31;98276.88;;;19.22;71.75
63535;BME280;55128;50.230;18.944;2022-09-09T17:29:33;98288.00;;;19.17;71.66
63535;BME280;55128;50.230;18.944;2022-09-09T17:34:36;98287.56;;;18.91;73.10
63535;BME280;55128;50.230;18.944;2022-09-09T17:39:36;98283.78;;;18.61;73.92
63535;BME280;55128;50.230;18.944;2022-09-09T17:44:37;98290.16;;;18.39;74.76
63535;BME280;55128;50.230;18.944;2022-09-09T17:49:39;98293.91;;;18.37;74.78
63535;BME280;55128;50.230;18.944;2022-09-09T17:54:39;98294.72;;;18.49;74.39
63535;BME280;55128;50.230;18.944;2022-09-09T17:59:41;98292.28;;;18.24;74.46
63535;BME280;55128;50.230;18.944;2022-09-09T18:04:42;98292.69;;;17.97;75.52
63535;BME280;55128;50.230;18.944;2022-09-09T18:09:42;98295.63;;;17.94;74.89
63535;BME280;55128;50.230;18.944;2022-09-09T18:14:43;98294.88;;;17.81;74.99
63535;BME280;55128;50.230;18.944;2022-09-09T18:19:44;98299.41;;;17.69;75.50
63535;BME280;55128;50.230;18.944;2022-09-09T18:24:45;98301.72;;;17.62;75.57
63535;BME280;55128;50.230;18.944;2022-09-09T18:29:47;98320.69;;;17.49;75.85
63535;BME280;55128;50.230;18.944;2022-09-09T18:34:48;98320.91;;;17.58;75.19
63535;BME280;55128;50.230;18.944;2022-09-09T18:39:50;98325.16;;;17.49;75.54
63535;BME280;55128;50.230;18.944;2022-09-09T18:44:50;98327.59;;;17.29;76.00
63535;BME280;55128;50.230;18.944;2022-09-09T18:49:51;98332.84;;;17.20;75.93
63535;BME280;55128;50.230;18.944;2022-09-09T18:54:51;98330.38;;;17.05;76.54
63535;BME280;55128;50.230;18.944;2022-09-09T18:59:52;98326.75;;;17.18;76.59
63535;BME280;55128;50.230;18.944;2022-09-09T19:04:54;98332.59;;;17.23;75.64
63535;BME280;55128;50.230;18.944;2022-09-09T19:09:55;98333.91;;;17.17;75.58
63535;BME280;55128;50.230;18.944;2022-09-09T19:14:56;98331.09;;;17.07;75.79
63535;BME280;55128;50.230;18.944;2022-09-09T19:19:56;98322.69;;;17.01;76.55
63535;BME280;55128;50.230;18.944;2022-09-09T19:24:57;98310.38;;;17.09;76.50
63535;BME280;55128;50.230;18.944;2022-09-09T19:30:02;98317.41;;;16.88;76.98
63535;BME280;55128;50.230;18.944;2022-09-09T19:35:03;98315.25;;;16.93;76.69
63535;BME280;55128;50.230;18.944;2022-09-09T19:40:05;98321.34;;;17.06;76.26
63535;BME280;55128;50.230;18.944;2022-09-09T19:45:07;98319.13;;;17.00;76.48
63535;BME280;55128;50.230;18.944;2022-09-09T19:50:09;98326.94;;;17.03;76.39
63535;BME280;55128;50.230;18.944;2022-09-09T19:55:10;98327.19;;;17.00;76.20
63535;BME280;55128;50.230;18.944;2022-09-09T20:00:11;98327.16;;;16.89;76.92
63535;BME280;55128;50.230;18.944;2022-09-09T20:05:12;98332.22;;;16.81;76.85
63535;BME280;55128;50.230;18.944;2022-09-09T20:10:13;98326.19;;;16.90;76.92
63535;BME280;55128;50.230;18.944;2022-09-09T20:15:13;98331.38;;;16.80;77.06
63535;BME280;55128;50.230;18.944;2022-09-09T20:20:14;98329.72;;;16.66;77.37
63535;BME280;55128;50.230;18.944;2022-09-09T20:25:14;98320.22;;;16.62;77.28
63535;BME280;55128;50.230;18.944;2022-09-09T20:30:15;98328.09;;;16.52;77.77
63535;BME280;55128;50.230;18.944;2022-09-09T20:35:16;98321.38;;;16.47;77.54
63535;BME280;55128;50.230;18.944;2022-09-09T20:40:16;98321.91;;;16.52;77.33
63535;BME280;55128;50.230;18.944;2022-09-09T20:45:18;98320.91;;;16.53;77.59
63535;BME280;55128;50.230;18.944;2022-09-09T20:50:19;98317.31;;;16.65;77.08
63535;BME280;55128;50.230;18.944;2022-09-09T20:55:19;98315.53;;;16.53;77.20
63535;BME280;55128;50.230;18.944;2022-09-09T21:00:20;98315.28;;;16.45;77.80
63535;BME280;55128;50.230;18.944;2022-09-09T21:05:20;98309.41;;;16.40;77.78
63535;BME280;55128;50.230;18.944;2022-09-09T21:10:21;98312.94;;;16.40;77.65
63535;BME280;55128;50.230;18.944;2022-09-09T21:15:22;98310.25;;;16.40;77.96
63535;BME280;55128;50.230;18.944;2022-09-09T21:20:23;98307.47;;;16.42;77.69
63535;BME280;55128;50.230;18.944;2022-09-09T21:25:25;98311.06;;;16.29;78.37
63535;BME280;55128;50.230;18.944;2022-09-09T21:30:26;98313.50;;;16.32;78.27
63535;BME280;55128;50.230;18.944;2022-09-09T21:35:29;98308.34;;;16.42;77.74
63535;BME280;55128;50.230;18.944;2022-09-09T21:40:37;98306.72;;;16.40;78.05
63535;BME280;55128;50.230;18.944;2022-09-09T21:45:39;98307.97;;;16.23;78.26
63535;BME280;55128;50.230;18.944;2022-09-09T21:50:45;98303.94;;;16.17;78.50
63535;BME280;55128;50.230;18.944;2022-09-09T21:55:47;98300.75;;;16.12;78.75
63535;BME280;55128;50.230;18.944;2022-09-09T22:00:48;98300.78;;;16.23;78.35
63535;BME280;55128;50.230;18.944;2022-09-09T22:05:48;98295.16;;;16.39;78.29
63535;BME280;55128;50.230;18.944;2022-09-09T22:10:49;98302.22;;;16.40;78.02
63535;BME280;55128;50.230;18.944;2022-09-09T22:15:50;98299.47;;;16.29;77.85
63535;BME280;55128;50.230;18.944;2022-09-09T22:20:50;98299.44;;;16.42;77.74
63535;BME280;55128;50.230;18.944;2022-09-09T22:25:51;98299.78;;;16.37;78.24
63535;BME280;55128;50.230;18.944;2022-09-09T22:30:54;98309.06;;;16.44;78.24
63535;BME280;55128;50.230;18.944;2022-09-09T22:35:55;98321.09;;;16.39;77.78
63535;BME280;55128;50.230;18.944;2022-09-09T22:40:56;98311.66;;;16.22;78.90
63535;BME280;55128;50.230;18.944;2022-09-09T22:45:58;98321.06;;;16.27;78.46
63535;BME280;55128;50.230;18.944;2022-09-09T22:51:11;98320.19;;;16.27;78.53
63535;BME280;55128;50.230;18.944;2022-09-09T22:56:14;98319.28;;;16.39;78.41
63535;BME280;55128;50.230;18.944;2022-09-09T23:01:18;98309.63;;;16.37;79.36
63535;BME280;55128;50.230;18.944;2022-09-09T23:06:22;98310.59;;;16.36;79.24
63535;BME280;55128;50.230;18.944;2022-09-09T23:11:25;98310.50;;;16.37;79.35
63535;BME280;55128;50.230;18.944;2022-09-09T23:16:38;98318.06;;;16.43;79.38
63535;BME280;55128;50.230;18.944;2022-09-09T23:21:39;98308.44;;;16.41;79.53
63535;BME280;55128;50.230;18.944;2022-09-09T23:26:41;98321.84;;;16.41;79.14
63535;BME280;55128;50.230;18.944;2022-09-09T23:31:44;98306.94;;;16.37;79.89
63535;BME280;55128;50.230;18.944;2022-09-09T23:36:45;98304.09;;;16.51;79.18
63535;BME280;55128;50.230;18.944;2022-09-09T23:41:48;98302.16;;;16.53;79.40
63535;BME280;55128;50.230;18.944;2022-09-09T23:46:49;98298.66;;;16.64;79.30
63535;BME280;55128;50.230;18.944;2022-09-09T23:51:50;98280.53;;;16.67;78.99
63535;BME280;55128;50.230;18.944;2022-09-09T23:56:50;98255.16;;;16.60;79.02
